Time;durP1;ratioP1;P1;durP2;ratioP2;P2;SDS_P1;SDS_P2;PMS_P1;PMS_P2;Temp;Humidity;BMP_temperature;BMP_pressure;BME280_temperature;BME280_humidity;BME280_pressure;Samples;Min_cycle;Max_cycle;Signal;HPM_P1;HPM_P2
2023/09/14 00:00:15;;;;;;;5.20;2.55;;;;;;;;;;4986570;28;20053;-65
2023/09/14 00:02:41;;;;;;;4.30;2.47;;;;;;;;;;5001192;28;20526;-65
2023/09/14 00:05:07;;;;;;;6.00;2.90;;;;;;;;;;4998044;28;20030;-66
2023/09/14 00:07:32;;;;;;;5.50;2.60;;;;;;;;;;4992660;28;20514;-66
2023/09/14 00:09:58;;;;;;;6.25;2.55;;;;;;;;;;4994679;28;20050;-66
2023/09/14 00:12:24;;;;;;;8.48;2.63;;;;;;;;;;4998712;28;20050;-66
2023/09/14 00:14:50;;;;;;;7.25;2.88;;;;;;;;;;4995937;28;20042;-66
2023/09/14 00:17:15;;;;;;;6.20;2.90;;;;;;;;;;4992080;28;20053;-66
2023/09/14 00:19:40;;;;;;;4.75;2.55;;;;;;;;;;4994896;28;20100;-66
2023/09/14 00:22:06;;;;;;;4.43;2.55;;;;;;;;;;4998469;28;20035;-66
2023/09/14 00:24:31;;;;;;;4.20;2.50;;;;;;;;;;4990713;28;20096;-66
2023/09/14 00:26:56;;;;;;;4.35;2.70;;;;;;;;;;4990147;28;20037;-66
2023/09/14 00:29:22;;;;;;;4.22;2.72;;;;;;;;;;4990913;28;20030;-66
2023/09/14 00:31:47;;;;;;;6.32;3.00;;;;;;;;;;4995528;28;20492;-66
2023/09/14 00:34:12;;;;;;;5.57;2.75;;;;;;;;;;4997501;28;20100;-66
2023/09/14 00:36:38;;;;;;;5.68;2.40;;;;;;;;;;5000434;28;20041;-66
2023/09/14 00:39:03;;;;;;;6.40;2.67;;;;;;;;;;4992406;28;20050;-66
2023/09/14 00:41:29;;;;;;;4.57;2.80;;;;;;;;;;4996380;28;20049;-66
2023/09/14 00:43:54;;;;;;;7.95;3.28;;;;;;;;;;4976509;28;20035;-66
2023/09/14 00:46:20;;;;;;;5.85;2.88;;;;;;;;;;4976160;28;20038;-66
2023/09/14 00:48:46;;;;;;;6.80;3.25;;;;;;;;;;4974492;28;20049;-66
2023/09/14 00:51:12;;;;;;;4.45;2.80;;;;;;;;;;4972759;28;20495;-66
2023/09/14 00:53:38;;;;;;;5.50;2.90;;;;;;;;;;4990985;28;20034;-66
2023/09/14 00:56:06;;;;;;;6.78;3.03;;;;;;;;;;4991751;28;20487;-66
2023/09/14 00:58:31;;;;;;;8.05;3.30;;;;;;;;;;4996819;28;20431;-66
2023/09/14 01:00:57;;;;;;;7.78;3.13;;;;;;;;;;4991953;28;20639;-66
2023/09/14 01:03:23;;;;;;;6.05;3.50;;;;;;;;;;4995472;28;20039;-66
2023/09/14 01:05:49;;;;;;;6.45;3.28;;;;;;;;;;5002422;28;20038;-66
2023/09/14 01:08:15;;;;;;;7.18;3.10;;;;;;;;;;4998122;28;20095;-66
2023/09/14 01:10:40;;;;;;;6.07;2.67;;;;;;;;;;4999672;28;20046;-66
2023/09/14 01:13:11;;;;;;;6.00;3.28;;;;;;;;;;5004257;28;20046;-66
2023/09/14 01:15:48;;;;;;;7.32;3.63;;;;;;;;;;4999472;28;20042;-66
2023/09/14 01:18:19;;;;;;;6.25;3.13;;;;;;;;;;4985201;28;20045;-66
2023/09/14 01:21:26;;;;;;;5.25;3.28;;;;;;;;;;4980347;28;20463;-66
2023/09/14 01:24:09;;;;;;;6.10;3.35;;;;;;;;;;5004429;28;20038;-66
2023/09/14 01:26:34;;;;;;;6.13;3.17;;;;;;;;;;4992091;28;20089;-66
2023/09/14 01:29:04;;;;;;;5.75;3.10;;;;;;;;;;5003985;28;20735;-65
2023/09/14 01:31:29;;;;;;;6.07;3.42;;;;;;;;;;5005294;28;20034;-66
2023/09/14 01:33:55;;;;;;;6.05;3.10;;;;;;;;;;5001379;28;20042;-66
2023/09/14 01:36:31;;;;;;;5.13;3.25;;;;;;;;;;5004057;28;20081;-66
2023/09/14 01:38:57;;;;;;;8.68;2.95;;;;;;;;;;5000751;28;20072;-66
2023/09/14 01:41:23;;;;;;;7.90;3.15;;;;;;;;;;4997077;28;20065;-67
2023/09/14 01:43:51;;;;;;;5.68;3.08;;;;;;;;;;4999369;28;20057;-66
2023/09/14 01:46:17;;;;;;;7.07;3.60;;;;;;;;;;5003961;28;20053;-66
2023/09/14 01:48:43;;;;;;;8.90;3.22;;;;;;;;;;5003212;28;20041;-66
2023/09/14 01:51:08;;;;;;;6.18;3.88;;;;;;;;;;4990704;28;20058;-66
2023/09/14 01:53:35;;;;;;;6.70;3.13;;;;;;;;;;4996315;28;20046;-66
2023/09/14 01:56:00;;;;;;;8.05;3.05;;;;;;;;;;4997134;28;20032;-66
2023/09/14 01:58:26;;;;;;;6.35;3.33;;;;;;;;;;5001731;28;20784;-66
2023/09/14 02:00:51;;;;;;;5.95;3.08;;;;;;;;;;5003401;28;20038;-66
2023/09/14 02:03:16;;;;;;;6.32;2.83;;;;;;;;;;5000919;28;20038;-66
2023/09/14 02:05:42;;;;;;;6.45;3.33;;;;;;;;;;4995840;28;20034;-66
2023/09/14 02:08:07;;;;;;;9.82;3.30;;;;;;;;;;4999753;28;20027;-66
2023/09/14 02:10:32;;;;;;;8.63;3.30;;;;;;;;;;5003943;28;20600;-66
2023/09/14 02:12:58;;;;;;;5.07;3.08;;;;;;;;;;5005140;28;20034;-66
2023/09/14 02:15:23;;;;;;;6.25;3.10;;;;;;;;;;4999221;28;20046;-66
2023/09/14 02:17:48;;;;;;;8.68;3.22;;;;;;;;;;4998276;28;20050;-66
2023/09/14 02:20:14;;;;;;;5.75;3.30;;;;;;;;;;4994128;28;20038;-66
2023/09/14 02:22:39;;;;;;;7.32;3.83;;;;;;;;;;4996886;28;20443;-66
2023/09/14 02:25:05;;;;;;;7.40;4.00;;;;;;;;;;5000159;28;20070;-66
2023/09/14 02:27:31;;;;;;;8.23;3.53;;;;;;;;;;4998889;28;20064;-66
2023/09/14 02:29:56;;;;;;;6.70;3.63;;;;;;;;;;4993803;28;20049;-66
2023/09/14 02:32:22;;;;;;;8.60;3.53;;;;;;;;;;5005494;28;20034;-66
2023/09/14 02:34:48;;;;;;;7.40;3.53;;;;;;;;;;4989541;28;20086;-66
2023/09/14 02:37:14;;;;;;;6.05;3.47;;;;;;;;;;4992882;28;20038;-66
2023/09/14 02:39:39;;;;;;;11.35;4.05;;;;;;;;;;4999602;28;20073;-66
2023/09/14 02:42:05;;;;;;;7.40;3.83;;;;;;;;;;4994055;28;20554;-66
2023/09/14 02:44:30;;;;;;;6.03;3.63;;;;;;;;;;4993289;28;20129;-66
2023/09/14 02:46:56;;;;;;;6.57;3.55;;;;;;;;;;4999213;28;20084;-66
2023/09/14 02:49:21;;;;;;;7.82;4.05;;;;;;;;;;5001221;28;20057;-66
2023/09/14 02:51:47;;;;;;;8.07;3.88;;;;;;;;;;4991334;28;20137;-66
2023/09/14 02:54:12;;;;;;;6.22;3.67;;;;;;;;;;5003108;28;20062;-65
2023/09/14 02:56:39;;;;;;;8.73;4.28;;;;;;;;;;4997399;28;20064;-66
2023/09/14 02:59:05;;;;;;;5.82;3.47;;;;;;;;;;4994791;28;20077;-66
2023/09/14 03:01:31;;;;;;;11.13;4.00;;;;;;;;;;4998557;28;20050;-66
2023/09/14 03:03:57;;;;;;;7.25;3.53;;;;;;;;;;4999937;28;20042;-66
2023/09/14 03:06:22;;;;;;;7.38;3.60;;;;;;;;;;4995617;28;20037;-66
2023/09/14 03:08:48;;;;;;;5.90;3.45;;;;;;;;;;4993731;28;20512;-66
2023/09/14 03:11:13;;;;;;;6.32;3.55;;;;;;;;;;4997028;28;20125;-66
2023/09/14 03:13:38;;;;;;;6.72;3.60;;;;;;;;;;4999551;28;20496;-66
2023/09/14 03:16:04;;;;;;;7.68;3.60;;;;;;;;;;5001252;28;20053;-66
2023/09/14 03:18:29;;;;;;;5.45;3.28;;;;;;;;;;4998766;28;20584;-66
2023/09/14 03:20:55;;;;;;;6.70;3.55;;;;;;;;;;4995729;28;20050;-66
2023/09/14 03:23:21;;;;;;;8.07;3.70;;;;;;;;;;4993413;28;20123;-66
2023/09/14 03:25:48;;;;;;;6.22;3.35;;;;;;;;;;4996112;28;20053;-66
2023/09/14 03:28:14;;;;;;;4.53;3.25;;;;;;;;;;4981695;28;20579;-66
2023/09/14 03:30:40;;;;;;;7.70;3.28;;;;;;;;;;4997469;28;20092;-66
2023/09/14 03:33:05;;;;;;;6.60;3.63;;;;;;;;;;4999555;28;20080;-66
2023/09/14 03:35:31;;;;;;;7.80;3.78;;;;;;;;;;4986312;28;20645;-66
2023/09/14 03:37:56;;;;;;;8.30;3.67;;;;;;;;;;4998755;28;20039;-66
2023/09/14 03:40:22;;;;;;;7.10;3.33;;;;;;;;;;4996847;28;20057;-66
2023/09/14 03:42:48;;;;;;;6.28;3.75;;;;;;;;;;4990710;28;20105;-66
2023/09/14 03:45:14;;;;;;;8.18;4.10;;;;;;;;;;4994377;28;20046;-66
2023/09/14 03:47:39;;;;;;;9.05;4.05;;;;;;;;;;5000707;28;20084;-66
2023/09/14 03:50:05;;;;;;;7.68;4.40;;;;;;;;;;4993402;28;20523;-66
2023/09/14 03:52:31;;;;;;;8.52;3.90;;;;;;;;;;4996156;28;20104;-66
2023/09/14 03:54:56;;;;;;;8.20;4.40;;;;;;;;;;4995100;28;20181;-66
2023/09/14 03:57:22;;;;;;;5.68;3.88;;;;;;;;;;4998736;28;20423;-66
2023/09/14 03:59:48;;;;;;;8.55;4.28;;;;;;;;;;4992940;28;20068;-66
2023/09/14 04:02:13;;;;;;;8.13;4.20;;;;;;;;;;4992644;28;20871;-66
2023/09/14 04:04:42;;;;;;;8.43;4.47;;;;;;;;;;4997938;28;20726;-66
2023/09/14 04:07:08;;;;;;;9.55;4.85;;;;;;;;;;4998381;28;20038;-66
2023/09/14 04:09:33;;;;;;;9.52;4.63;;;;;;;;;;4994106;28;20048;-66
2023/09/14 04:11:58;;;;;;;8.95;4.65;;;;;;;;;;4992021;28;20498;-66
2023/09/14 04:14:24;;;;;;;7.45;3.95;;;;;;;;;;4994584;28;20034;-66
2023/09/14 04:16:51;;;;;;;7.78;4.32;;;;;;;;;;4998305;28;20030;-66
2023/09/14 04:19:17;;;;;;;8.43;4.75;;;;;;;;;;4996271;28;20109;-66
2023/09/14 04:21:43;;;;;;;9.80;4.78;;;;;;;;;;4994511;28;20128;-66
2023/09/14 04:24:08;;;;;;;10.38;4.47;;;;;;;;;;4995838;28;20046;-66
2023/09/14 04:26:34;;;;;;;7.50;4.55;;;;;;;;;;4998080;28;20423;-66
2023/09/14 04:28:59;;;;;;;8.57;4.22;;;;;;;;;;4995527;28;20060;-66
2023/09/14 04:31:25;;;;;;;11.38;5.28;;;;;;;;;;4992204;28;20030;-66
2023/09/14 04:33:51;;;;;;;9.30;4.72;;;;;;;;;;4994226;28;20137;-66
2023/09/14 04:36:16;;;;;;;10.82;4.88;;;;;;;;;;4990096;28;20034;-66
2023/09/14 04:38:42;;;;;;;7.75;4.30;;;;;;;;;;4992753;28;20060;-66
2023/09/14 04:41:07;;;;;;;9.02;4.82;;;;;;;;;;4997462;28;20058;-66
2023/09/14 04:43:33;;;;;;;9.68;4.55;;;;;;;;;;4996641;28;20065;-66
2023/09/14 04:46:03;;;;;;;11.10;4.47;;;;;;;;;;4991404;28;20046;-66
2023/09/14 04:48:28;;;;;;;7.80;4.38;;;;;;;;;;4991046;28;20598;-66
2023/09/14 04:50:57;;;;;;;8.43;4.80;;;;;;;;;;4993740;28;20116;-66
2023/09/14 04:53:27;;;;;;;9.52;4.82;;;;;;;;;;4998491;28;20080;-66
2023/09/14 04:55:53;;;;;;;9.95;4.80;;;;;;;;;;4991653;28;20183;-66
2023/09/14 04:58:19;;;;;;;10.30;5.32;;;;;;;;;;4996487;28;20042;-66
2023/09/14 05:00:48;;;;;;;10.75;5.22;;;;;;;;;;4997822;28;20084;-66
2023/09/14 05:03:14;;;;;;;8.45;4.88;;;;;;;;;;4994208;28;20115;-66
2023/09/14 05:05:39;;;;;;;8.75;4.97;;;;;;;;;;4991339;28;20038;-66
2023/09/14 05:08:06;;;;;;;6.55;4.53;;;;;;;;;;4995094;28;20088;-66
2023/09/14 05:10:31;;;;;;;8.48;4.57;;;;;;;;;;4991592;28;20030;-66
2023/09/14 05:12:57;;;;;;;7.90;4.57;;;;;;;;;;4994535;28;20077;-66
2023/09/14 05:15:22;;;;;;;8.18;4.43;;;;;;;;;;4991300;28;20038;-66
2023/09/14 05:17:47;;;;;;;9.15;5.18;;;;;;;;;;4992503;28;20046;-66
2023/09/14 05:20:14;;;;;;;12.25;5.60;;;;;;;;;;4997871;28;20104;-66
2023/09/14 05:22:40;;;;;;;7.68;4.97;;;;;;;;;;4996059;28;20033;-66
2023/09/14 05:25:06;;;;;;;7.07;4.47;;;;;;;;;;4991230;28;20045;-66
2023/09/14 05:27:38;;;;;;;15.88;5.35;;;;;;;;;;4993303;28;20045;-66
2023/09/14 05:30:10;;;;;;;16.40;5.95;;;;;;;;;;4997682;28;20066;-66
2023/09/14 05:32:39;;;;;;;9.10;5.20;;;;;;;;;;4979350;28;20097;-66
2023/09/14 05:35:06;;;;;;;10.65;5.90;;;;;;;;;;4996707;28;20105;-66
2023/09/14 05:37:32;;;;;;;11.88;5.20;;;;;;;;;;4998194;28;20037;-66
2023/09/14 05:39:57;;;;;;;17.15;5.38;;;;;;;;;;4992707;28;20097;-66
2023/09/14 05:42:23;;;;;;;8.88;5.78;;;;;;;;;;4991076;28;20070;-66
2023/09/14 05:44:49;;;;;;;10.30;6.10;;;;;;;;;;4992377;28;20069;-66
2023/09/14 05:47:14;;;;;;;10.65;6.63;;;;;;;;;;4962799;28;20483;-66
2023/09/14 05:49:41;;;;;;;11.13;6.10;;;;;;;;;;4978277;28;20027;-66
2023/09/14 05:52:06;;;;;;;10.07;5.72;;;;;;;;;;4966987;28;20066;-66
2023/09/14 05:54:32;;;;;;;11.55;6.32;;;;;;;;;;4977289;28;20128;-66
2023/09/14 05:56:57;;;;;;;13.25;5.95;;;;;;;;;;4974536;28;20042;-66
2023/09/14 05:59:23;;;;;;;11.57;6.63;;;;;;;;;;4960157;28;20521;-66
2023/09/14 06:01:49;;;;;;;10.90;6.18;;;;;;;;;;4963695;28;20220;-66
2023/09/14 06:04:16;;;;;;;10.73;5.45;;;;;;;;;;4975551;28;20161;-66
2023/09/14 06:06:42;;;;;;;13.88;6.10;;;;;;;;;;4973936;28;20787;-66
2023/09/14 06:09:08;;;;;;;11.13;6.22;;;;;;;;;;4969171;28;20046;-66
2023/09/14 06:11:33;;;;;;;13.05;6.88;;;;;;;;;;4962925;28;20599;-68
2023/09/14 06:13:58;;;;;;;12.65;6.63;;;;;;;;;;4967494;28;20041;-68
2023/09/14 06:16:24;;;;;;;10.95;6.25;;;;;;;;;;4971057;28;20492;-68
2023/09/14 06:18:49;;;;;;;16.42;7.15;;;;;;;;;;4978862;28;20069;-68
2023/09/14 06:21:15;;;;;;;13.60;7.15;;;;;;;;;;4995830;28;20050;-68
2023/09/14 06:23:40;;;;;;;14.32;7.28;;;;;;;;;;4997228;28;20512;-68
2023/09/14 06:26:06;;;;;;;15.05;7.22;;;;;;;;;;4999259;28;20026;-68
2023/09/14 06:28:31;;;;;;;15.82;7.78;;;;;;;;;;4985980;28;20030;-68
2023/09/14 06:30:58;;;;;;;14.30;7.75;;;;;;;;;;4972046;28;20528;-67
2023/09/14 06:33:23;;;;;;;15.45;7.13;;;;;;;;;;4985840;28;20428;-68
2023/09/14 06:35:48;;;;;;;16.27;6.82;;;;;;;;;;4986513;28;20101;-68
2023/09/14 06:38:14;;;;;;;11.82;7.30;;;;;;;;;;4980035;28;20117;-68
2023/09/14 06:40:40;;;;;;;19.77;7.85;;;;;;;;;;4969196;28;20831;-68
2023/09/14 06:43:05;;;;;;;20.00;8.38;;;;;;;;;;4981825;28;20165;-67
2023/09/14 06:45:30;;;;;;;15.30;8.45;;;;;;;;;;4986764;28;20409;-68
2023/09/14 06:47:56;;;;;;;14.52;8.63;;;;;;;;;;4988914;28;20031;-67
2023/09/14 06:50:22;;;;;;;15.45;8.13;;;;;;;;;;4988389;28;20041;-68
2023/09/14 06:52:47;;;;;;;23.50;9.38;;;;;;;;;;4995979;28;20026;-68
2023/09/14 06:55:12;;;;;;;17.15;8.63;;;;;;;;;;4994506;28;20042;-68
2023/09/14 06:57:38;;;;;;;18.92;9.88;;;;;;;;;;4994984;28;20039;-68
2023/09/14 07:00:08;;;;;;;20.90;9.48;;;;;;;;;;4995829;28;20062;-68
2023/09/14 07:02:33;;;;;;;20.77;10.10;;;;;;;;;;4992561;28;20076;-68
2023/09/14 07:04:59;;;;;;;26.13;10.30;;;;;;;;;;4984774;28;20034;-68
2023/09/14 07:07:24;;;;;;;22.75;10.10;;;;;;;;;;4973124;28;20053;-67
2023/09/14 07:09:50;;;;;;;22.00;9.68;;;;;;;;;;4963643;28;20093;-68
2023/09/14 07:12:15;;;;;;;23.55;9.57;;;;;;;;;;4972094;28;20536;-67
2023/09/14 07:14:41;;;;;;;26.33;10.32;;;;;;;;;;4979999;28;20035;-68
2023/09/14 07:17:07;;;;;;;22.63;9.60;;;;;;;;;;4972501;28;20448;-68
2023/09/14 07:19:32;;;;;;;24.10;9.95;;;;;;;;;;4991038;28;20073;-68
2023/09/14 07:21:58;;;;;;;22.15;10.77;;;;;;;;;;4990702;28;20046;-68
2023/09/14 07:24:23;;;;;;;26.13;11.07;;;;;;;;;;4979575;28;20038;-67
2023/09/14 07:26:48;;;;;;;19.17;9.82;;;;;;;;;;4988639;28;20042;-68
2023/09/14 07:29:14;;;;;;;20.83;9.32;;;;;;;;;;4997280;28;20065;-68
2023/09/14 07:31:39;;;;;;;23.15;10.60;;;;;;;;;;4970495;28;20038;-67
2023/09/14 07:34:05;;;;;;;21.23;10.05;;;;;;;;;;4969313;28;20261;-68
2023/09/14 07:36:30;;;;;;;25.02;10.18;;;;;;;;;;4974306;28;20575;-68
2023/09/14 07:38:56;;;;;;;27.73;10.38;;;;;;;;;;4989224;28;20061;-67
2023/09/14 07:41:21;;;;;;;18.77;9.75;;;;;;;;;;4990235;28;20076;-68
2023/09/14 07:43:47;;;;;;;21.75;10.02;;;;;;;;;;4992934;28;20026;-67
2023/09/14 07:46:12;;;;;;;18.48;9.73;;;;;;;;;;4995530;28;20042;-68
2023/09/14 07:48:37;;;;;;;26.08;10.15;;;;;;;;;;4985402;28;20645;-67
2023/09/14 07:51:03;;;;;;;22.45;9.80;;;;;;;;;;4992290;28;20038;-68
2023/09/14 07:53:28;;;;;;;23.05;9.85;;;;;;;;;;4999592;28;20120;-68
2023/09/14 07:55:53;;;;;;;24.63;9.77;;;;;;;;;;4977940;28;21417;-68
2023/09/14 07:58:22;;;;;;;19.80;9.38;;;;;;;;;;4977302;28;20061;-68
2023/09/14 08:00:48;;;;;;;21.90;9.52;;;;;;;;;;4975675;28;20050;-68
2023/09/14 08:03:14;;;;;;;23.17;10.10;;;;;;;;;;4971754;28;20038;-68
2023/09/14 08:05:42;;;;;;;17.90;9.85;;;;;;;;;;4998033;28;20100;-68
2023/09/14 08:08:10;;;;;;;18.63;9.18;;;;;;;;;;4999606;28;20033;-67
2023/09/14 08:10:36;;;;;;;20.55;9.50;;;;;;;;;;4998360;28;20031;-68
2023/09/14 08:13:02;;;;;;;22.55;9.20;;;;;;;;;;4994717;28;20118;-68
2023/09/14 08:15:28;;;;;;;16.38;9.13;;;;;;;;;;4989659;28;20049;-67
2023/09/14 08:17:54;;;;;;;15.73;8.38;;;;;;;;;;4978817;28;20685;-68
2023/09/14 08:20:19;;;;;;;14.45;8.35;;;;;;;;;;4965628;28;20058;-68
2023/09/14 08:22:44;;;;;;;14.90;8.68;;;;;;;;;;4977712;28;20087;-68
2023/09/14 08:25:10;;;;;;;13.63;7.60;;;;;;;;;;4976905;28;20493;-68
2023/09/14 08:27:40;;;;;;;16.70;8.68;;;;;;;;;;4987805;28;20046;-68
2023/09/14 08:30:10;;;;;;;18.02;9.75;;;;;;;;;;4997558;28;20041;-68
2023/09/14 08:32:35;;;;;;;19.17;9.35;;;;;;;;;;4983023;28;20034;-68
2023/09/14 08:35:27;;;;;;;23.73;11.00;;;;;;;;;;4995996;28;20088;-68
2023/09/14 08:37:54;;;;;;;27.65;11.80;;;;;;;;;;4995591;28;20030;-67
2023/09/14 08:40:20;;;;;;;24.48;10.20;;;;;;;;;;4996413;28;20053;-68
2023/09/14 08:42:49;;;;;;;21.08;10.27;;;;;;;;;;4979203;28;20109;-67
2023/09/14 08:45:25;;;;;;;30.50;11.50;;;;;;;;;;4977282;28;20053;-68
2023/09/14 08:47:52;;;;;;;32.35;12.18;;;;;;;;;;4975589;28;20027;-67
2023/09/14 08:50:20;;;;;;;25.48;11.18;;;;;;;;;;4971848;28;20043;-67
2023/09/14 08:52:46;;;;;;;19.85;10.40;;;;;;;;;;4973569;28;20121;-67
2023/09/14 08:55:12;;;;;;;15.63;9.40;;;;;;;;;;4974339;28;20133;-68
2023/09/14 08:57:44;;;;;;;16.00;9.13;;;;;;;;;;4990313;28;20566;-67
2023/09/14 09:00:15;;;;;;;15.82;9.10;;;;;;;;;;4988684;28;20419;-68
2023/09/14 09:02:42;;;;;;;15.38;8.90;;;;;;;;;;4974506;28;20041;-68
2023/09/14 09:05:09;;;;;;;16.85;8.43;;;;;;;;;;4976155;28;20037;-68
2023/09/14 09:07:35;;;;;;;14.40;8.38;;;;;;;;;;4974995;28;20030;-68
2023/09/14 09:10:02;;;;;;;16.08;8.77;;;;;;;;;;4968494;28;20035;-69
2023/09/14 09:12:28;;;;;;;19.33;9.73;;;;;;;;;;4972406;28;20043;-69
2023/09/14 09:14:55;;;;;;;14.13;7.68;;;;;;;;;;4993956;28;20049;-68
2023/09/14 09:17:20;;;;;;;15.43;7.97;;;;;;;;;;4984026;28;20030;-68
2023/09/14 09:19:47;;;;;;;14.25;7.68;;;;;;;;;;4998866;28;20080;-68
2023/09/14 09:22:14;;;;;;;14.48;7.28;;;;;;;;;;4968364;28;20070;-68
2023/09/14 09:24:40;;;;;;;13.88;7.45;;;;;;;;;;4984772;28;20039;-68
2023/09/14 09:27:27;;;;;;;14.77;7.55;;;;;;;;;;4998629;28;20073;-68
2023/09/14 09:30:03;;;;;;;16.00;7.47;;;;;;;;;;4999851;28;20771;-68
2023/09/14 09:32:29;;;;;;;15.27;7.40;;;;;;;;;;4980778;28;20069;-68
2023/09/14 09:34:54;;;;;;;12.05;7.40;;;;;;;;;;4999491;28;20022;-68
2023/09/14 09:37:20;;;;;;;13.13;6.22;;;;;;;;;;4986824;28;20125;-68
2023/09/14 09:39:46;;;;;;;20.67;7.90;;;;;;;;;;4999897;28;20706;-68
2023/09/14 09:42:13;;;;;;;17.95;7.00;;;;;;;;;;4998833;28;20038;-68
2023/09/14 09:44:41;;;;;;;11.65;6.05;;;;;;;;;;4993280;28;20034;-68
2023/09/14 09:47:12;;;;;;;9.02;5.00;;;;;;;;;;4992875;28;20590;-68
2023/09/14 09:49:38;;;;;;;10.05;5.15;;;;;;;;;;4999107;28;20034;-68
2023/09/14 09:52:08;;;;;;;11.68;5.55;;;;;;;;;;4980406;28;20101;-67
2023/09/14 09:54:35;;;;;;;9.70;5.00;;;;;;;;;;4998539;28;20046;-68
2023/09/14 09:57:03;;;;;;;9.57;4.70;;;;;;;;;;4986584;28;20034;-68
2023/09/14 09:59:30;;;;;;;12.43;5.40;;;;;;;;;;4991935;28;20045;-68
2023/09/14 10:01:56;;;;;;;12.15;5.63;;;;;;;;;;4998617;28;20065;-68
2023/09/14 10:04:26;;;;;;;11.82;5.35;;;;;;;;;;4994196;28;20018;-68
2023/09/14 10:06:55;;;;;;;7.05;3.60;;;;;;;;;;5003141;28;20041;-68
2023/09/14 10:09:21;;;;;;;8.68;4.80;;;;;;;;;;4997164;28;20210;-69
2023/09/14 10:11:49;;;;;;;9.88;4.55;;;;;;;;;;4994375;28;20104;-68
2023/09/14 10:14:18;;;;;;;11.23;4.80;;;;;;;;;;4992702;28;20037;-68
2023/09/14 10:16:44;;;;;;;7.60;4.22;;;;;;;;;;4983663;28;20042;-68
2023/09/14 10:19:10;;;;;;;8.10;3.80;;;;;;;;;;4997708;28;20033;-68
2023/09/14 10:21:37;;;;;;;7.63;3.22;;;;;;;;;;4979721;28;20037;-68
2023/09/14 10:24:06;;;;;;;6.03;3.42;;;;;;;;;;4992104;28;20049;-68
2023/09/14 10:26:34;;;;;;;8.52;3.28;;;;;;;;;;4998336;28;20034;-68
2023/09/14 10:29:00;;;;;;;10.15;3.17;;;;;;;;;;4998973;28;20033;-67
2023/09/14 10:31:28;;;;;;;4.65;2.80;;;;;;;;;;4993891;28;20026;-68
2023/09/14 10:33:59;;;;;;;6.65;2.65;;;;;;;;;;4992155;28;20504;-68
2023/09/14 10:36:30;;;;;;;6.18;3.10;;;;;;;;;;4995973;28;20520;-68
2023/09/14 10:38:58;;;;;;;8.90;3.00;;;;;;;;;;4986745;28;20052;-68
2023/09/14 10:41:23;;;;;;;4.28;2.70;;;;;;;;;;4994165;28;20046;-68
2023/09/14 10:43:49;;;;;;;4.70;2.75;;;;;;;;;;4998421;28;20144;-68
2023/09/14 10:46:18;;;;;;;7.00;3.00;;;;;;;;;;4995910;28;20033;-68
2023/09/14 10:48:44;;;;;;;5.30;2.35;;;;;;;;;;4991475;28;20061;-68
2023/09/14 10:51:11;;;;;;;5.53;2.60;;;;;;;;;;4992373;28;20117;-68
2023/09/14 10:53:40;;;;;;;7.68;3.03;;;;;;;;;;4999820;28;20053;-68
2023/09/14 10:56:18;;;;;;;6.82;2.67;;;;;;;;;;4988830;28;20056;-68
2023/09/14 10:58:43;;;;;;;6.57;2.80;;;;;;;;;;4990981;28;20038;-68
2023/09/14 11:01:11;;;;;;;5.05;2.95;;;;;;;;;;5000480;28;20042;-68
2023/09/14 11:04:08;;;;;;;3.63;2.60;;;;;;;;;;4997028;28;20042;-68
2023/09/14 11:06:45;;;;;;;3.78;2.40;;;;;;;;;;4954902;28;20043;-68
2023/09/14 11:09:13;;;;;;;3.83;2.05;;;;;;;;;;4997009;28;20126;-68
2023/09/14 11:11:40;;;;;;;3.75;2.38;;;;;;;;;;4990255;28;20096;-68
2023/09/14 11:14:10;;;;;;;6.00;2.55;;;;;;;;;;4987117;28;20479;-68
2023/09/14 11:16:49;;;;;;;6.13;2.42;;;;;;;;;;4997825;28;20038;-68
2023/09/14 11:19:30;;;;;;;3.83;2.20;;;;;;;;;;4989681;28;20038;-68
2023/09/14 11:22:03;;;;;;;4.78;2.15;;;;;;;;;;4989116;28;20085;-68
2023/09/14 11:24:33;;;;;;;5.90;2.40;;;;;;;;;;4971420;28;20050;-68
2023/09/14 11:26:59;;;;;;;6.53;2.53;;;;;;;;;;4985737;28;20061;-68
2023/09/14 11:29:27;;;;;;;4.38;2.40;;;;;;;;;;4988075;28;20050;-68
2023/09/14 11:32:00;;;;;;;3.65;2.15;;;;;;;;;;4988965;28;20041;-68
2023/09/14 11:34:26;;;;;;;3.58;2.50;;;;;;;;;;5004696;28;20038;-68
2023/09/14 11:36:53;;;;;;;5.35;2.80;;;;;;;;;;4996902;28;20586;-68
2023/09/14 11:39:18;;;;;;;4.28;2.60;;;;;;;;;;4991985;28;20085;-68
2023/09/14 11:41:47;;;;;;;3.10;2.15;;;;;;;;;;4995187;28;20061;-68
2023/09/14 11:44:12;;;;;;;4.75;2.67;;;;;;;;;;4998390;28;20041;-68
2023/09/14 11:46:38;;;;;;;5.18;2.53;;;;;;;;;;4993778;28;20419;-68
2023/09/14 11:49:04;;;;;;;6.65;2.63;;;;;;;;;;4984197;28;20037;-68
2023/09/14 11:51:31;;;;;;;4.32;2.60;;;;;;;;;;4976213;28;20143;-68
2023/09/14 11:53:59;;;;;;;4.47;1.83;;;;;;;;;;4978184;28;20034;-68
2023/09/14 11:56:26;;;;;;;5.43;2.67;;;;;;;;;;4984153;28;20532;-68
2023/09/14 11:58:53;;;;;;;4.05;2.58;;;;;;;;;;4983195;28;20782;-68
2023/09/14 12:01:18;;;;;;;5.95;2.20;;;;;;;;;;4982202;28;20782;-68
2023/09/14 12:03:44;;;;;;;4.32;2.67;;;;;;;;;;4996309;28;20034;-68
2023/09/14 12:06:10;;;;;;;5.47;3.05;;;;;;;;;;4990378;28;20041;-68
2023/09/14 12:08:44;;;;;;;4.13;2.53;;;;;;;;;;4988566;28;20531;-68
2023/09/14 12:11:09;;;;;;;5.93;3.13;;;;;;;;;;4987045;28;20026;-68
2023/09/14 12:13:35;;;;;;;5.22;3.15;;;;;;;;;;4991843;28;20664;-68
2023/09/14 12:16:02;;;;;;;4.93;2.80;;;;;;;;;;4992191;28;20169;-68
2023/09/14 12:18:41;;;;;;;7.22;3.30;;;;;;;;;;4989819;28;20056;-68
2023/09/14 12:21:09;;;;;;;4.55;3.30;;;;;;;;;;4993408;28;20034;-68
2023/09/14 12:23:38;;;;;;;6.05;3.42;;;;;;;;;;4989554;28;20573;-68
2023/09/14 12:26:04;;;;;;;3.83;2.53;;;;;;;;;;4991678;28;20026;-68
2023/09/14 12:28:29;;;;;;;5.85;3.22;;;;;;;;;;4987160;28;20561;-68
2023/09/14 12:30:55;;;;;;;8.35;3.10;;;;;;;;;;4991523;28;20523;-68
2023/09/14 12:33:20;;;;;;;4.38;2.67;;;;;;;;;;4981019;28;20038;-68
2023/09/14 12:35:47;;;;;;;5.15;2.33;;;;;;;;;;4992141;28;20128;-68
2023/09/14 12:38:13;;;;;;;5.15;2.20;;;;;;;;;;4996911;28;20033;-68
2023/09/14 12:40:39;;;;;;;3.58;2.00;;;;;;;;;;4995234;28;20254;-68
2023/09/14 12:43:05;;;;;;;3.35;2.17;;;;;;;;;;4990702;28;20061;-68
2023/09/14 12:45:35;;;;;;;4.30;2.30;;;;;;;;;;4990577;28;20061;-68
2023/09/14 12:48:06;;;;;;;4.72;2.38;;;;;;;;;;4996529;28;20034;-68
2023/09/14 12:50:33;;;;;;;6.20;2.50;;;;;;;;;;4985042;28;20045;-68
2023/09/14 12:52:58;;;;;;;4.13;2.33;;;;;;;;;;4993110;28;20062;-68
2023/09/14 12:55:26;;;;;;;3.83;2.30;;;;;;;;;;4993664;28;20120;-68
2023/09/14 12:57:54;;;;;;;6.82;2.35;;;;;;;;;;4995328;28;20038;-68
2023/09/14 13:00:24;;;;;;;5.82;2.90;;;;;;;;;;5003622;28;20038;-68
2023/09/14 13:02:50;;;;;;;5.25;2.15;;;;;;;;;;4997759;28;20073;-68
2023/09/14 13:05:20;;;;;;;4.20;2.17;;;;;;;;;;4996716;28;20041;-68
2023/09/14 13:07:47;;;;;;;4.10;2.42;;;;;;;;;;4977184;28;20033;-68
2023/09/14 13:10:16;;;;;;;5.82;2.00;;;;;;;;;;4989380;28;20034;-68
2023/09/14 13:12:57;;;;;;;3.63;2.30;;;;;;;;;;4995843;28;20050;-68
2023/09/14 13:15:24;;;;;;;3.28;2.25;;;;;;;;;;4996524;28;20038;-69
2023/09/14 13:17:57;;;;;;;4.05;2.13;;;;;;;;;;4991863;28;20117;-68
2023/09/14 13:20:24;;;;;;;4.78;2.78;;;;;;;;;;4982271;28;20041;-68
2023/09/14 13:22:50;;;;;;;2.70;1.90;;;;;;;;;;4981917;28;20100;-68
2023/09/14 13:25:15;;;;;;;3.15;2.00;;;;;;;;;;4996023;28;20508;-68
2023/09/14 13:27:41;;;;;;;3.38;2.17;;;;;;;;;;4975042;28;20082;-68
2023/09/14 13:30:12;;;;;;;4.75;2.28;;;;;;;;;;4973910;28;20038;-68
2023/09/14 13:32:39;;;;;;;4.22;2.55;;;;;;;;;;4986558;28;20037;-68
2023/09/14 13:35:05;;;;;;;5.18;2.33;;;;;;;;;;5000148;28;20021;-67
2023/09/14 13:37:30;;;;;;;3.17;2.33;;;;;;;;;;4989491;28;20069;-68
2023/09/14 13:39:56;;;;;;;3.55;2.45;;;;;;;;;;4989406;28;20141;-68
2023/09/14 13:42:21;;;;;;;6.15;2.47;;;;;;;;;;4988491;28;20038;-68
2023/09/14 13:44:47;;;;;;;3.20;2.00;;;;;;;;;;4995143;28;20040;-68
2023/09/14 13:47:12;;;;;;;5.43;2.40;;;;;;;;;;4983642;28;20040;-68
2023/09/14 13:49:38;;;;;;;5.40;2.00;;;;;;;;;;4989148;28;20038;-68
2023/09/14 13:52:05;;;;;;;5.65;2.17;;;;;;;;;;4976401;28;20044;-68
2023/09/14 13:54:30;;;;;;;2.45;1.95;;;;;;;;;;4981439;28;20062;-69
2023/09/14 13:56:56;;;;;;;2.72;2.00;;;;;;;;;;4985651;28;20045;-69
2023/09/14 13:59:22;;;;;;;3.42;2.08;;;;;;;;;;4970320;28;20760;-68
2023/09/14 14:01:48;;;;;;;4.20;2.20;;;;;;;;;;4980116;28;20049;-68
2023/09/14 14:04:14;;;;;;;4.95;1.85;;;;;;;;;;4986950;28;20034;-69
2023/09/14 14:06:40;;;;;;;6.00;2.20;;;;;;;;;;4991560;28;20411;-68
2023/09/14 14:09:05;;;;;;;4.53;2.30;;;;;;;;;;4969437;28;20031;-68
2023/09/14 14:11:30;;;;;;;6.45;2.22;;;;;;;;;;4976985;28;20026;-68
2023/09/14 14:13:58;;;;;;;2.58;1.98;;;;;;;;;;4978713;28;20148;-67
2023/09/14 14:16:23;;;;;;;2.90;2.03;;;;;;;;;;4978733;28;20082;-68
2023/09/14 14:18:48;;;;;;;2.35;1.88;;;;;;;;;;4979061;28;20125;-68
2023/09/14 14:21:14;;;;;;;3.30;2.13;;;;;;;;;;4978690;28;20129;-68
2023/09/14 14:23:39;;;;;;;5.55;2.40;;;;;;;;;;4981012;28;20121;-68
2023/09/14 14:26:05;;;;;;;5.05;2.30;;;;;;;;;;4973673;28;20061;-68
2023/09/14 14:28:30;;;;;;;5.93;2.15;;;;;;;;;;4978661;28;20165;-68
2023/09/14 14:30:56;;;;;;;4.00;2.28;;;;;;;;;;4978457;28;20042;-68
2023/09/14 14:33:21;;;;;;;5.53;2.10;;;;;;;;;;4986312;28;20045;-68
2023/09/14 14:35:47;;;;;;;3.25;2.22;;;;;;;;;;4999507;28;20037;-68